createdAt,value
2022-11-18T00:01:12.956Z,58.50
2022-11-18T00:03:40.635Z,58.15
2022-11-18T00:06:10.649Z,54.13
2022-11-18T00:08:37.893Z,62.92
2022-11-18T00:11:34.009Z,54.92
2022-11-18T00:14:19.573Z,55.25
2022-11-18T00:16:47.496Z,56.63
2022-11-18T00:19:15.212Z,56.47
2022-11-18T00:21:42.755Z,51.72
2022-11-18T00:24:09.862Z,51.03
2022-11-18T00:26:36.944Z,60.25
2022-11-18T00:29:04.201Z,51.67
2022-11-18T00:31:31.276Z,58.80
2022-11-18T00:33:58.278Z,60.53
2022-11-18T00:36:25.305Z,53.70
2022-11-18T00:38:52.327Z,60.53
2022-11-18T00:41:19.292Z,67.05
2022-11-18T00:43:46.513Z,61.95
2022-11-18T00:46:14.217Z,56.38
2022-11-18T00:48:41.519Z,58.75
2022-11-18T00:51:14.829Z,57.33
2022-11-18T00:53:42.364Z,60.00
2022-11-18T00:56:09.690Z,57.38
2022-11-18T00:58:37.086Z,57.90
2022-11-18T01:01:05.171Z,57.00
2022-11-18T01:03:32.372Z,60.78
2022-11-18T01:05:59.536Z,55.75
2022-11-18T01:08:26.531Z,59.53
2022-11-18T01:10:53.734Z,61.72
2022-11-18T01:13:23.882Z,52.63
2022-11-18T01:15:51.841Z,64.30
2022-11-18T01:18:21.302Z,55.85
2022-11-18T01:20:48.521Z,53.58
2022-11-18T01:23:16.692Z,56.78
2022-11-18T01:25:45.569Z,55.40
2022-11-18T01:28:13.295Z,61.17
2022-11-18T01:30:41.980Z,58.58
2022-11-18T01:33:09.610Z,58.90
2022-11-18T01:35:38.414Z,62.55
2022-11-18T01:38:06.344Z,62.75
2022-11-18T01:40:36.416Z,58.63
2022-11-18T01:43:06.020Z,54.25
2022-11-18T01:45:41.117Z,51.63
2022-11-18T01:48:13.972Z,49.72
2022-11-18T01:53:17.314Z,47.20
2022-11-18T01:55:48.554Z,50.67
2022-11-18T01:58:26.656Z,46.53
2022-11-18T02:00:54.205Z,67.47
2022-11-18T02:03:21.895Z,48.03
2022-11-18T02:05:51.078Z,49.22
2022-11-18T02:08:19.290Z,42.83
2022-11-18T02:10:46.639Z,42.63
2022-11-18T02:13:14.216Z,47.33
2022-11-18T02:15:59.093Z,40.45
2022-11-18T02:18:35.946Z,40.50
2022-11-18T02:21:32.996Z,40.15
2022-11-18T02:24:15.012Z,40.60
2022-11-18T02:27:09.422Z,34.88
2022-11-18T02:29:49.867Z,38.53
2022-11-18T02:32:24.446Z,33.50
2022-11-18T02:34:51.387Z,42.97
2022-11-18T02:37:25.332Z,45.05
2022-11-18T02:40:05.978Z,47.88
2022-11-18T02:42:36.591Z,43.90
2022-11-18T02:45:08.930Z,42.35
2022-11-18T02:47:37.784Z,43.95
2022-11-18T02:50:11.717Z,44.60
2022-11-18T02:52:40.550Z,37.78
2022-11-18T02:55:11.314Z,35.38
2022-11-18T02:57:40.280Z,41.10
2022-11-18T03:00:08.018Z,39.88
2022-11-18T03:02:46.862Z,39.42
2022-11-18T03:05:21.134Z,38.38
2022-11-18T03:07:55.423Z,41.55
2022-11-18T03:10:25.672Z,42.92
2022-11-18T03:13:13.959Z,42.17
2022-11-18T03:15:47.853Z,41.45
2022-11-18T03:18:29.038Z,39.90
2022-11-18T03:21:18.297Z,41.35
2022-11-18T03:24:21.451Z,39.85
2022-11-18T03:26:52.629Z,40.10
2022-11-18T03:29:28.830Z,36.97
2022-11-18T03:32:04.978Z,39.30
2022-11-18T03:34:45.980Z,36.13
2022-11-18T03:37:16.059Z,39.15
2022-11-18T03:39:49.137Z,36.15
2022-11-18T03:42:22.013Z,32.45
2022-11-18T03:47:32.143Z,36.80
2022-11-18T03:50:05.475Z,41.17
2022-11-18T03:52:36.847Z,42.72
2022-11-18T03:55:12.354Z,46.88
2022-11-18T03:57:54.602Z,43.95
2022-11-18T04:00:22.104Z,45.10
2022-11-18T04:02:50.609Z,46.70
2022-11-18T04:05:19.396Z,47.85
2022-11-18T04:08:04.943Z,47.67
2022-11-18T04:10:41.558Z,45.08
2022-11-18T04:13:32.471Z,46.03
2022-11-18T04:15:59.592Z,53.50
2022-11-18T04:18:27.306Z,44.38
2022-11-18T04:20:54.559Z,41.35
2022-11-18T04:23:21.600Z,51.60
2022-11-18T04:25:48.509Z,45.17
2022-11-18T04:28:15.428Z,42.72
2022-11-18T04:30:42.549Z,44.05
2022-11-18T04:33:09.567Z,43.92
2022-11-18T04:35:36.462Z,52.75
2022-11-18T04:38:04.928Z,49.00
2022-11-18T04:40:32.199Z,50.95
2022-11-18T04:42:59.129Z,51.80
2022-11-18T04:45:26.045Z,51.42
2022-11-18T04:47:53.031Z,45.30
2022-11-18T04:50:20.019Z,48.45
2022-11-18T04:52:46.971Z,50.83
2022-11-18T04:55:13.873Z,52.50
2022-11-18T04:57:40.865Z,61.65
2022-11-18T05:00:09.040Z,56.53
2022-11-18T05:02:35.981Z,57.10
2022-11-18T05:05:03.317Z,52.67
2022-11-18T05:07:30.287Z,45.17
2022-11-18T05:09:57.441Z,48.58
2022-11-18T05:12:42.765Z,50.55
2022-11-18T05:15:09.832Z,49.50
2022-11-18T05:17:37.039Z,47.85
2022-11-18T05:20:04.270Z,46.70
2022-11-18T05:22:31.436Z,44.60
2022-11-18T05:24:58.392Z,43.58
2022-11-18T05:27:25.602Z,45.15
2022-11-18T05:29:52.637Z,38.78
2022-11-18T05:32:19.687Z,44.55
2022-11-18T05:34:46.624Z,46.03
2022-11-18T05:37:17.831Z,44.25
2022-11-18T05:39:44.828Z,40.08
2022-11-18T05:42:30.233Z,43.65
2022-11-18T05:44:58.611Z,42.78
2022-11-18T05:47:26.568Z,41.30
2022-11-18T05:49:53.566Z,42.40
2022-11-18T05:52:20.490Z,44.60
2022-11-18T05:54:50.523Z,41.17
2022-11-18T05:57:17.499Z,42.58
2022-11-18T05:59:44.477Z,42.35
2022-11-18T06:02:16.751Z,48.25
2022-11-18T06:04:49.384Z,45.78
2022-11-18T06:07:23.084Z,43.33
2022-11-18T06:09:57.940Z,45.60
2022-11-18T06:12:31.289Z,52.10
2022-11-18T06:15:13.206Z,48.03
2022-11-18T06:17:45.891Z,37.30
2022-11-18T06:20:13.190Z,44.72
2022-11-18T06:22:46.156Z,45.40
2022-11-18T06:25:14.285Z,45.90
2022-11-18T06:27:42.087Z,52.15
2022-11-18T06:30:09.868Z,46.20
2022-11-18T06:32:36.764Z,47.60
2022-11-18T06:35:03.975Z,47.28
2022-11-18T06:37:30.897Z,42.15
2022-11-18T06:39:57.860Z,41.35
2022-11-18T06:42:45.817Z,47.53
2022-11-18T06:45:12.999Z,42.10
2022-11-18T06:47:40.081Z,46.13
2022-11-18T06:50:07.736Z,44.67
2022-11-18T06:52:34.796Z,41.38
2022-11-18T06:55:02.022Z,47.83
2022-11-18T06:57:29.241Z,40.95
2022-11-18T07:00:01.647Z,40.83
2022-11-18T07:04:55.958Z,43.05
2022-11-18T07:07:23.437Z,38.45
2022-11-18T07:09:50.547Z,43.70
2022-11-18T07:12:17.750Z,44.28
2022-11-18T07:14:44.753Z,41.47
2022-11-18T07:17:11.771Z,45.03
2022-11-18T07:19:40.041Z,42.97
2022-11-18T07:22:08.244Z,38.25
2022-11-18T07:24:35.444Z,37.88
2022-11-18T07:27:02.623Z,38.72
2022-11-18T07:29:29.677Z,37.13
2022-11-18T07:31:56.815Z,35.05
2022-11-18T07:34:23.831Z,33.92
2022-11-18T07:36:51.109Z,37.42
2022-11-18T07:39:18.648Z,33.50
2022-11-18T07:41:45.774Z,38.60
2022-11-18T07:44:13.858Z,32.80
2022-11-18T07:46:41.706Z,36.08
2022-11-18T07:49:09.356Z,43.83
2022-11-18T07:51:38.960Z,41.50
2022-11-18T07:54:07.748Z,32.80
2022-11-18T07:56:34.877Z,37.83
2022-11-18T07:59:02.330Z,29.83
2022-11-18T08:01:30.954Z,37.38
2022-11-18T08:04:04.159Z,31.35
2022-11-18T08:06:33.494Z,34.13
2022-11-18T08:09:01.407Z,31.23
2022-11-18T08:11:28.512Z,33.22
2022-11-18T08:13:55.615Z,38.00
2022-11-18T08:16:25.139Z,37.33
2022-11-18T08:18:52.940Z,32.40
2022-11-18T08:21:21.634Z,35.47
2022-11-18T08:23:58.723Z,39.40
2022-11-18T08:26:27.124Z,42.28
2022-11-18T08:28:54.285Z,38.00
2022-11-18T08:31:25.354Z,38.53
2022-11-18T08:33:57.140Z,36.55
2022-11-18T08:36:27.062Z,39.70
2022-11-18T08:38:56.771Z,39.25
2022-11-18T08:41:33.229Z,39.40
2022-11-18T08:44:01.023Z,42.67
2022-11-18T08:46:28.640Z,37.33
2022-11-18T08:48:56.253Z,37.42
2022-11-18T08:51:23.652Z,36.45
2022-11-18T08:53:50.735Z,40.22
2022-11-18T08:56:22.883Z,38.72
2022-11-18T08:58:50.219Z,41.47
2022-11-18T09:01:17.645Z,35.60
2022-11-18T09:03:44.789Z,39.53
2022-11-18T09:06:21.917Z,37.38
2022-11-18T09:08:49.039Z,34.15
2022-11-18T09:11:21.626Z,32.08
2022-11-18T09:16:38.738Z,33.40
2022-11-18T09:19:31.604Z,30.48
2022-11-18T09:21:53.018Z,34.20
2022-11-18T09:24:20.235Z,30.23
2022-11-18T09:26:48.229Z,29.85
2022-11-18T09:29:15.207Z,29.13
2022-11-18T09:31:42.127Z,31.95
2022-11-18T09:34:10.518Z,33.13
2022-11-18T09:36:37.924Z,30.75
2022-11-18T09:39:05.295Z,30.00
2022-11-18T09:41:48.783Z,34.20
2022-11-18T09:44:46.259Z,26.90
2022-11-18T09:47:36.470Z,29.63
2022-11-18T09:50:41.830Z,27.60
2022-11-18T09:53:17.674Z,29.98
2022-11-18T09:55:45.626Z,27.30
2022-11-18T09:58:27.084Z,23.05
2022-11-18T10:00:54.870Z,25.08
2022-11-18T10:03:28.918Z,26.13
2022-11-18T10:06:16.932Z,21.58
2022-11-18T10:09:20.260Z,25.05
2022-11-18T10:12:08.910Z,21.23
2022-11-18T10:15:11.173Z,24.42
2022-11-18T10:17:58.435Z,25.67
2022-11-18T10:20:28.442Z,24.52
2022-11-18T10:23:24.410Z,24.20
2022-11-18T10:25:54.691Z,24.27
2022-11-18T10:28:29.719Z,28.45
2022-11-18T10:31:07.857Z,21.23
2022-11-18T10:33:35.143Z,26.08
2022-11-18T10:36:19.281Z,25.98
2022-11-18T10:38:49.873Z,27.88
2022-11-18T10:41:20.259Z,27.50
2022-11-18T10:43:49.140Z,64.97
2022-11-18T10:46:32.784Z,53.20
2022-11-18T10:49:08.917Z,43.60
2022-11-18T10:51:37.664Z,60.38
2022-11-18T10:54:24.044Z,53.45
2022-11-18T10:57:15.894Z,29.60
2022-11-18T10:59:54.060Z,24.13
2022-11-18T11:02:32.318Z,20.75
2022-11-18T11:05:21.685Z,21.98
2022-11-18T11:08:35.681Z,19.42
2022-11-18T11:11:04.050Z,19.60
2022-11-18T11:13:32.791Z,16.58
2022-11-18T11:16:03.548Z,18.08
2022-11-18T11:18:42.998Z,17.25
2022-11-18T11:21:14.087Z,19.98
2022-11-18T11:23:42.009Z,16.40
2022-11-18T11:29:26.840Z,14.70
2022-11-18T11:32:27.736Z,15.93
2022-11-18T11:35:18.560Z,14.57
2022-11-18T11:37:57.342Z,17.25
2022-11-18T11:40:29.371Z,63.05
2022-11-18T11:43:28.519Z,27.83
2022-11-18T11:46:10.392Z,24.20
2022-11-18T11:49:05.647Z,21.13
2022-11-18T11:51:42.584Z,17.33
2022-11-18T11:54:24.225Z,18.20
2022-11-18T11:56:57.333Z,14.60
2022-11-18T11:59:33.655Z,19.00
2022-11-18T12:02:03.711Z,16.17
2022-11-18T12:04:41.330Z,16.42
2022-11-18T12:07:25.309Z,16.75
2022-11-18T12:10:17.585Z,14.43
2022-11-18T12:12:50.366Z,14.95
2022-11-18T12:18:57.895Z,18.10
2022-11-18T12:21:45.940Z,19.40
2022-11-18T12:24:27.498Z,19.20
2022-11-18T12:26:54.568Z,21.80
2022-11-18T12:29:21.619Z,22.73
2022-11-18T12:31:59.596Z,16.13
2022-11-18T12:34:26.532Z,21.13
2022-11-18T12:36:54.524Z,18.08
2022-11-18T12:39:30.286Z,18.20
2022-11-18T12:42:17.128Z,16.65
2022-11-18T12:44:46.642Z,14.82
2022-11-18T12:47:15.248Z,15.85
2022-11-18T12:49:45.513Z,14.38
2022-11-18T12:52:30.957Z,12.65
2022-11-18T12:55:04.875Z,13.57
2022-11-18T12:57:34.530Z,12.88
2022-11-18T13:00:52.463Z,12.38
2022-11-18T13:03:25.068Z,15.52
2022-11-18T13:06:00.164Z,18.15
2022-11-18T13:08:29.041Z,12.77
2022-11-18T13:11:21.406Z,12.52
2022-11-18T13:14:11.915Z,16.30
2022-11-18T13:16:58.147Z,16.48
2022-11-18T13:19:26.002Z,14.60
2022-11-18T13:22:17.013Z,14.57
2022-11-18T13:24:52.371Z,15.50
2022-11-18T13:27:48.142Z,12.55
2022-11-18T13:30:16.466Z,11.32
2022-11-18T13:32:46.235Z,10.27
2022-11-18T13:35:22.216Z,9.55
2022-11-18T13:38:01.420Z,10.23
2022-11-18T13:40:40.127Z,10.65
2022-11-18T13:43:11.218Z,10.77
2022-11-18T13:45:39.965Z,11.85
2022-11-18T13:48:13.682Z,14.25
2022-11-18T13:50:47.436Z,15.65
2022-11-18T13:53:30.675Z,32.80
2022-11-18T13:56:18.052Z,37.60
2022-11-18T13:59:16.510Z,44.40
2022-11-18T14:01:45.252Z,19.17
2022-11-18T14:04:23.867Z,14.15
2022-11-18T14:06:51.077Z,13.15
2022-11-18T14:09:29.372Z,13.35
2022-11-18T14:12:14.592Z,15.20
2022-11-18T14:14:43.643Z,19.27
2022-11-18T14:17:18.665Z,21.90
2022-11-18T14:19:51.896Z,17.73
2022-11-18T14:22:29.975Z,21.90
2022-11-18T14:25:36.091Z,20.98
2022-11-18T14:28:18.554Z,19.83
2022-11-18T14:31:06.738Z,17.02
2022-11-18T14:33:36.012Z,16.95
2022-11-18T14:36:09.745Z,18.17
2022-11-18T14:38:57.436Z,22.60
2022-11-18T14:41:48.696Z,19.02
2022-11-18T14:44:17.454Z,24.20
2022-11-18T14:46:52.700Z,22.15
2022-11-18T14:49:22.546Z,21.98
2022-11-18T14:51:52.295Z,24.35
2022-11-18T14:54:26.408Z,25.45
2022-11-18T14:57:03.301Z,26.92
2022-11-18T14:59:30.509Z,26.25
2022-11-18T15:01:58.792Z,24.35
2022-11-18T15:04:26.391Z,19.63
2022-11-18T15:06:53.853Z,21.92
2022-11-18T15:09:21.647Z,21.48
2022-11-18T15:11:48.898Z,28.75
2022-11-18T15:14:16.931Z,136.10
2022-11-18T15:16:45.554Z,33.17
2022-11-18T15:19:15.703Z,50.17
2022-11-18T15:21:43.833Z,19.00
2022-11-18T15:24:10.812Z,18.48
2022-11-18T15:26:46.246Z,32.50
2022-11-18T15:29:24.433Z,36.15
2022-11-18T15:31:52.164Z,41.22
2022-11-18T15:34:21.639Z,29.75
2022-11-18T15:36:49.576Z,25.27
2022-11-18T15:39:16.586Z,22.05
2022-11-18T15:41:43.585Z,27.52
2022-11-18T15:44:11.777Z,26.55
2022-11-18T15:46:39.338Z,22.73
2022-11-18T15:49:09.267Z,20.73
2022-11-18T15:51:37.018Z,20.65
2022-11-18T15:54:04.733Z,22.23
2022-11-18T15:56:33.850Z,27.95
2022-11-18T15:59:12.246Z,33.38
2022-11-18T16:01:41.875Z,34.17
2022-11-18T16:04:10.985Z,36.05
2022-11-18T16:06:38.560Z,56.33
2022-11-18T16:09:06.799Z,45.45
2022-11-18T16:11:52.357Z,35.17
2022-11-18T16:14:21.996Z,25.65
2022-11-18T16:16:51.083Z,26.75
2022-11-18T16:19:20.257Z,44.92
2022-11-18T16:21:50.170Z,29.92
2022-11-18T16:24:26.092Z,28.70
2022-11-18T16:26:53.442Z,30.63
2022-11-18T16:29:21.119Z,28.95
2022-11-18T16:31:54.379Z,41.78
2022-11-18T16:34:24.696Z,58.90
2022-11-18T16:36:54.625Z,72.95
2022-11-18T16:39:25.108Z,57.83
2022-11-18T16:42:06.808Z,47.85
2022-11-18T16:44:35.626Z,44.63
2022-11-18T16:47:03.759Z,45.58
2022-11-18T16:49:32.545Z,40.95
2022-11-18T16:51:59.648Z,43.97
2022-11-18T16:54:29.531Z,38.70
2022-11-18T16:56:58.454Z,37.97
2022-11-18T16:59:28.966Z,41.72
2022-11-18T17:01:58.251Z,42.95
2022-11-18T17:04:27.081Z,35.00
2022-11-18T17:06:54.759Z,35.90
2022-11-18T17:09:24.000Z,32.85
2022-11-18T17:11:52.813Z,34.85
2022-11-18T17:14:20.431Z,33.13
2022-11-18T17:16:47.523Z,39.83
2022-11-18T17:19:22.313Z,41.42
2022-11-18T17:21:51.156Z,43.70
2022-11-18T17:24:22.338Z,45.78
2022-11-18T17:26:53.900Z,45.65
2022-11-18T17:29:21.501Z,59.63
2022-11-18T17:31:49.353Z,75.30
2022-11-18T17:34:16.864Z,112.88
2022-11-18T17:36:44.399Z,158.80
2022-11-18T17:39:13.803Z,152.10
2022-11-18T17:41:59.630Z,80.88
2022-11-18T17:44:28.875Z,103.25
2022-11-18T17:46:56.257Z,42.60
2022-11-18T17:49:23.788Z,41.55
2022-11-18T17:51:51.739Z,35.13
2022-11-18T17:54:19.876Z,31.95
2022-11-18T17:56:47.377Z,27.33
2022-11-18T17:59:15.918Z,21.30
2022-11-18T18:01:43.349Z,34.80
2022-11-18T18:04:11.365Z,26.38
2022-11-18T18:06:38.628Z,24.65
2022-11-18T18:09:05.969Z,22.15
2022-11-18T18:11:33.088Z,21.52
2022-11-18T18:14:15.220Z,30.83
2022-11-18T18:16:45.527Z,27.35
2022-11-18T18:19:15.494Z,30.60
2022-11-18T18:21:42.780Z,41.60
2022-11-18T18:24:10.878Z,47.33
2022-11-18T18:26:42.047Z,64.57
2022-11-18T18:29:09.549Z,62.50
2022-11-18T18:31:37.416Z,54.47
2022-11-18T18:34:04.947Z,49.97
2022-11-18T18:36:33.153Z,85.10
2022-11-18T18:39:01.686Z,61.63
2022-11-18T18:41:28.734Z,53.67
2022-11-18T18:44:02.658Z,71.35
2022-11-18T18:46:32.663Z,68.80
2022-11-18T18:48:59.696Z,73.15
2022-11-18T18:51:28.538Z,83.10
2022-11-18T18:53:57.085Z,95.97
2022-11-18T18:56:24.906Z,103.22
2022-11-18T18:58:52.495Z,51.58
2022-11-18T19:01:21.270Z,41.72
2022-11-18T19:03:49.357Z,36.25
2022-11-18T19:06:50.213Z,48.53
2022-11-18T19:09:10.477Z,44.58
2022-11-18T19:11:57.166Z,58.03
2022-11-18T19:14:25.768Z,69.72
2022-11-18T19:16:53.535Z,51.72
2022-11-18T19:19:43.899Z,59.20
2022-11-18T19:22:13.847Z,100.85
2022-11-18T19:24:50.441Z,76.53
2022-11-18T19:27:19.467Z,82.47
2022-11-18T19:29:47.150Z,55.35
2022-11-18T19:32:14.964Z,48.05
2022-11-18T19:34:43.130Z,42.45
2022-11-18T19:37:10.389Z,54.10
2022-11-18T19:39:38.855Z,43.78
2022-11-18T19:42:06.587Z,48.70
2022-11-18T19:44:34.583Z,48.40
2022-11-18T19:47:01.819Z,47.25
2022-11-18T19:49:31.183Z,44.70
2022-11-18T19:51:58.472Z,69.80
2022-11-18T19:54:25.775Z,45.85
2022-11-18T19:56:53.167Z,57.40
2022-11-18T19:59:20.494Z,54.08
2022-11-18T20:01:48.186Z,47.38
2022-11-18T20:04:28.728Z,49.53
2022-11-18T20:06:57.106Z,49.75
2022-11-18T20:09:26.297Z,46.03
2022-11-18T20:11:53.796Z,57.85
2022-11-18T20:14:20.987Z,73.03
2022-11-18T20:16:48.238Z,63.78
2022-11-18T20:19:17.390Z,58.67
2022-11-18T20:21:44.942Z,53.80
2022-11-18T20:24:18.268Z,74.85
2022-11-18T20:26:47.413Z,64.70
2022-11-18T20:29:15.050Z,59.42
2022-11-18T20:31:43.060Z,52.70
2022-11-18T20:34:14.691Z,56.58
2022-11-18T20:36:42.403Z,49.95
2022-11-18T20:39:15.309Z,46.50
2022-11-18T20:41:43.454Z,45.58
2022-11-18T20:44:10.774Z,48.38
2022-11-18T20:46:38.223Z,39.33
2022-11-18T20:49:05.314Z,35.45
2022-11-18T20:51:32.741Z,42.58
2022-11-18T20:54:00.672Z,35.83
2022-11-18T20:56:28.325Z,40.47
2022-11-18T20:58:58.465Z,33.75
2022-11-18T21:01:31.081Z,27.73
2022-11-18T21:04:04.852Z,33.73
2022-11-18T21:06:33.523Z,29.88
2022-11-18T21:09:03.653Z,30.13
2022-11-18T21:11:34.133Z,27.30
2022-11-18T21:14:24.893Z,30.48
2022-11-18T21:17:04.859Z,29.05
2022-11-18T21:19:37.312Z,31.27
2022-11-18T21:22:05.219Z,22.75
2022-11-18T21:24:34.368Z,26.23
2022-11-18T21:27:02.641Z,23.02
2022-11-18T21:29:31.328Z,26.17
2022-11-18T21:32:02.967Z,22.08
2022-11-18T21:34:30.721Z,17.77
2022-11-18T21:36:58.295Z,17.98
2022-11-18T21:39:27.296Z,16.95
2022-11-18T21:41:56.647Z,15.80
2022-11-18T21:44:25.705Z,17.38
2022-11-18T21:46:52.878Z,14.63
2022-11-18T21:49:20.046Z,12.68
2022-11-18T21:51:47.227Z,14.98
2022-11-18T21:54:16.123Z,13.90
2022-11-18T21:56:43.073Z,13.15
2022-11-18T21:59:10.392Z,11.07
2022-11-18T22:01:37.357Z,12.70
2022-11-18T22:04:05.768Z,14.18
2022-11-18T22:06:38.021Z,12.98
2022-11-18T22:09:06.158Z,9.98
2022-11-18T22:11:33.107Z,12.02
2022-11-18T22:14:00.195Z,12.57
2022-11-18T22:16:27.322Z,12.20
2022-11-18T22:19:01.465Z,12.95
2022-11-18T22:21:30.765Z,11.63
2022-11-18T22:23:59.751Z,12.32
2022-11-18T22:26:27.123Z,13.13
2022-11-18T22:28:56.400Z,10.75
2022-11-18T22:31:24.924Z,11.80
2022-11-18T22:33:52.790Z,11.45
2022-11-18T22:36:21.587Z,12.55
2022-11-18T22:38:49.162Z,10.07
2022-11-18T22:41:40.194Z,10.38
2022-11-18T22:44:08.697Z,9.85
2022-11-18T22:46:37.342Z,12.43
2022-11-18T22:49:05.192Z,10.15
2022-11-18T22:51:32.895Z,10.45
2022-11-18T22:54:30.950Z,11.13
2022-11-18T22:56:47.534Z,9.95
2022-11-18T22:59:14.647Z,10.88
2022-11-18T23:01:41.888Z,12.57
2022-11-18T23:04:09.004Z,11.32
2022-11-18T23:06:36.030Z,12.18
2022-11-18T23:09:02.941Z,11.43
2022-11-18T23:11:49.604Z,10.48
2022-11-18T23:14:16.742Z,14.02
2022-11-18T23:16:43.784Z,14.25
2022-11-18T23:19:13.800Z,13.35
2022-11-18T23:21:41.708Z,12.00
2022-11-18T23:24:13.567Z,10.98
2022-11-18T23:26:40.666Z,13.73
2022-11-18T23:29:09.467Z,13.50
2022-11-18T23:31:36.571Z,13.25
2022-11-18T23:34:03.482Z,13.07
2022-11-18T23:36:30.630Z,12.73
2022-11-18T23:38:57.608Z,13.23
2022-11-18T23:41:24.810Z,13.13
2022-11-18T23:43:52.234Z,14.73
2022-11-18T23:46:19.423Z,14.60
2022-11-18T23:48:47.940Z,15.73
2022-11-18T23:51:20.636Z,14.75
2022-11-18T23:53:52.380Z,14.95
2022-11-18T23:56:21.463Z,14.88
2022-11-18T23:58:50.692Z,15.93
